Time;durP1;ratioP1;P1;durP2;ratioP2;P2;SDS_P1;SDS_P2;PMS_P1;PMS_P2;Temp;Humidity;BMP_temperature;BMP_pressure;BME280_temperature;BME280_humidity;BME280_pressure;Samples;Min_cycle;Max_cycle;Signal;HPM_P1;HPM_P2
2023/04/04 00:01:06;;;;;;;4.70;1.40;;;;;;;;;;6151821;23;20373;-66
2023/04/04 00:03:32;;;;;;;3.63;2.27;;;;;;;;;;6151468;23;20375;-69
2023/04/04 00:05:58;;;;;;;1.20;1.07;;;;;;;;;;6150831;23;20436;-65
2023/04/04 00:08:25;;;;;;;1.63;1.53;;;;;;;;;;6151619;23;20784;-68
2023/04/04 00:10:56;;;;;;;1.20;1.10;;;;;;;;;;6151275;23;20380;-66
2023/04/04 00:13:23;;;;;;;1.13;1.03;;;;;;;;;;6151261;23;20494;-68
2023/04/04 00:15:49;;;;;;;1.40;1.40;;;;;;;;;;6149644;23;20401;-64
2023/04/04 00:18:15;;;;;;;1.23;1.23;;;;;;;;;;6150372;23;20377;-65
2023/04/04 00:20:41;;;;;;;2.10;1.20;;;;;;;;;;6151067;23;20387;-65
2023/04/04 00:23:09;;;;;;;1.33;1.10;;;;;;;;;;6149986;23;20393;-65
2023/04/04 00:25:35;;;;;;;3.90;1.10;;;;;;;;;;6151060;23;20388;-66
2023/04/04 00:28:02;;;;;;;1.80;1.70;;;;;;;;;;6151670;23;20381;-65
2023/04/04 00:30:28;;;;;;;1.73;1.30;;;;;;;;;;6149561;23;20392;-66
2023/04/04 00:32:55;;;;;;;1.30;1.20;;;;;;;;;;6151019;23;20389;-65
2023/04/04 00:35:21;;;;;;;1.87;1.67;;;;;;;;;;6151298;23;20396;-65
2023/04/04 00:37:46;;;;;;;2.40;1.37;;;;;;;;;;6203569;23;20501;-65
2023/04/04 00:40:13;;;;;;;1.37;1.37;;;;;;;;;;6209563;23;20486;-68
2023/04/04 00:42:39;;;;;;;7.20;1.60;;;;;;;;;;6209742;23;20391;-69
2023/04/04 00:45:06;;;;;;;1.10;1.03;;;;;;;;;;6210880;23;20386;-66
2023/04/04 00:47:33;;;;;;;1.57;1.47;;;;;;;;;;6210265;23;20394;-67
2023/04/04 00:49:59;;;;;;;2.43;1.00;;;;;;;;;;6210977;23;20478;-66
2023/04/04 00:52:26;;;;;;;2.00;2.00;;;;;;;;;;6210616;23;20724;-65
2023/04/04 00:54:52;;;;;;;2.90;1.03;;;;;;;;;;6209302;23;20446;-65
2023/04/04 00:57:18;;;;;;;1.37;1.03;;;;;;;;;;6210404;23;20379;-65
2023/04/04 00:59:44;;;;;;;1.20;1.20;;;;;;;;;;6210574;23;20883;-66
2023/04/04 01:02:10;;;;;;;4.53;2.07;;;;;;;;;;6210581;23;20383;-65
2023/04/04 01:04:36;;;;;;;1.67;1.47;;;;;;;;;;6211349;23;20529;-67
2023/04/04 01:07:03;;;;;;;1.20;1.20;;;;;;;;;;6210530;23;20406;-68
2023/04/04 01:09:29;;;;;;;1.77;1.67;;;;;;;;;;6211082;23;20379;-64
2023/04/04 01:11:56;;;;;;;0.90;0.90;;;;;;;;;;6210951;23;20375;-64
2023/04/04 01:14:22;;;;;;;1.10;1.10;;;;;;;;;;6208965;23;20912;-65
2023/04/04 01:16:50;;;;;;;2.50;1.40;;;;;;;;;;6210047;23;20375;-65
2023/04/04 01:19:19;;;;;;;0.80;0.80;;;;;;;;;;6210146;23;20418;-68
2023/04/04 01:21:45;;;;;;;1.30;1.20;;;;;;;;;;6210005;23;20398;-65
2023/04/04 01:24:12;;;;;;;2.03;1.10;;;;;;;;;;6210684;23;20837;-65
2023/04/04 01:26:38;;;;;;;1.20;1.10;;;;;;;;;;6210402;23;20521;-67
2023/04/04 01:29:04;;;;;;;1.10;1.10;;;;;;;;;;6210615;23;20415;-65
2023/04/04 01:31:35;;;;;;;1.00;1.00;;;;;;;;;;6210835;23;20375;-67
2023/04/04 01:34:10;;;;;;;5.33;1.03;;;;;;;;;;6210297;23;20772;-65
2023/04/04 01:36:48;;;;;;;0.90;0.90;;;;;;;;;;6209269;23;20430;-65
2023/04/04 01:39:14;;;;;;;2.50;1.10;;;;;;;;;;6210315;23;20367;-65
2023/04/04 01:41:41;;;;;;;1.00;1.00;;;;;;;;;;6210184;23;20382;-66
2023/04/04 01:44:08;;;;;;;2.20;1.30;;;;;;;;;;6210477;23;20371;-65
2023/04/04 01:46:35;;;;;;;0.60;0.60;;;;;;;;;;6209300;23;20398;-64
2023/04/04 01:49:01;;;;;;;6.13;1.23;;;;;;;;;;6210063;23;20740;-67
2023/04/04 01:51:28;;;;;;;1.00;1.00;;;;;;;;;;6210418;23;20903;-65
2023/04/04 01:53:54;;;;;;;1.10;1.00;;;;;;;;;;6210045;23;20487;-64
2023/04/04 01:56:20;;;;;;;2.37;1.40;;;;;;;;;;6210018;23;20458;-65
2023/04/04 01:58:46;;;;;;;1.20;1.20;;;;;;;;;;6210489;23;20383;-65
2023/04/04 02:01:13;;;;;;;1.83;1.60;;;;;;;;;;6210035;23;20402;-64
2023/04/04 02:03:38;;;;;;;0.83;0.83;;;;;;;;;;6209941;23;20410;-66
2023/04/04 02:06:06;;;;;;;2.50;1.40;;;;;;;;;;6207952;23;20391;-64
2023/04/04 02:08:32;;;;;;;0.97;0.97;;;;;;;;;;6210385;23;20410;-67
2023/04/04 02:10:58;;;;;;;2.23;0.97;;;;;;;;;;6210561;23;20437;-64
2023/04/04 02:13:24;;;;;;;1.17;1.17;;;;;;;;;;6210217;23;20419;-70
2023/04/04 02:15:51;;;;;;;1.43;1.40;;;;;;;;;;6209072;23;20466;-66
2023/04/04 02:18:17;;;;;;;3.97;1.23;;;;;;;;;;6209817;23;20383;-64
2023/04/04 02:20:43;;;;;;;1.07;0.77;;;;;;;;;;6210608;23;20395;-66
2023/04/04 02:23:09;;;;;;;1.33;1.23;;;;;;;;;;6210282;23;20833;-66
2023/04/04 02:25:35;;;;;;;1.10;1.00;;;;;;;;;;6208625;23;20440;-65
2023/04/04 02:28:01;;;;;;;0.90;0.90;;;;;;;;;;6210588;23;20803;-66
2023/04/04 02:30:27;;;;;;;0.87;0.87;;;;;;;;;;6210243;23;20443;-70
2023/04/04 02:32:53;;;;;;;1.20;1.20;;;;;;;;;;6209271;23;20390;-68
2023/04/04 02:35:19;;;;;;;1.10;1.10;;;;;;;;;;6209811;23;20458;-67
2023/04/04 02:37:46;;;;;;;0.90;0.90;;;;;;;;;;6209414;23;20427;-66
2023/04/04 02:40:12;;;;;;;2.10;0.77;;;;;;;;;;6209679;23;20457;-67
2023/04/04 02:42:42;;;;;;;1.50;1.20;;;;;;;;;;6209509;23;20375;-67
2023/04/04 02:45:08;;;;;;;1.70;1.10;;;;;;;;;;6210390;23;20406;-70
2023/04/04 02:47:34;;;;;;;1.07;1.07;;;;;;;;;;6208816;23;20859;-69
2023/04/04 02:50:00;;;;;;;1.20;1.20;;;;;;;;;;6209894;23;20371;-68
2023/04/04 02:52:26;;;;;;;1.00;0.90;;;;;;;;;;6210120;23;20371;-66
2023/04/04 02:54:52;;;;;;;1.37;1.20;;;;;;;;;;6210011;23;20994;-66
2023/04/04 02:57:18;;;;;;;0.73;0.73;;;;;;;;;;6209410;23;20376;-66
2023/04/04 02:59:44;;;;;;;0.90;0.90;;;;;;;;;;6208126;23;20407;-70
2023/04/04 03:02:10;;;;;;;5.47;1.50;;;;;;;;;;6209360;23;20445;-66
2023/04/04 03:04:36;;;;;;;1.10;1.10;;;;;;;;;;6210507;23;20911;-67
2023/04/04 03:07:02;;;;;;;1.60;1.50;;;;;;;;;;6207713;23;20745;-67
2023/04/04 03:09:28;;;;;;;1.67;1.07;;;;;;;;;;6210205;23;20387;-67
2023/04/04 03:11:54;;;;;;;1.23;1.13;;;;;;;;;;6209811;23;20425;-66
2023/04/04 03:14:20;;;;;;;2.00;1.23;;;;;;;;;;6209883;23;20446;-66
2023/04/04 03:16:48;;;;;;;1.17;1.17;;;;;;;;;;6208887;23;20411;-69
2023/04/04 03:19:15;;;;;;;2.93;1.67;;;;;;;;;;6210197;23;20387;-67
2023/04/04 03:21:41;;;;;;;1.30;1.20;;;;;;;;;;6209676;23;21091;-69
2023/04/04 03:24:07;;;;;;;0.83;0.83;;;;;;;;;;6209736;23;20900;-66
2023/04/04 03:26:33;;;;;;;1.47;1.37;;;;;;;;;;6207461;23;20391;-68
2023/04/04 03:28:59;;;;;;;1.23;1.20;;;;;;;;;;6210130;23;20371;-67
2023/04/04 03:31:27;;;;;;;1.10;1.10;;;;;;;;;;6210018;23;20516;-66
2023/04/04 03:33:53;;;;;;;1.57;1.10;;;;;;;;;;6209784;23;20431;-67
2023/04/04 03:36:20;;;;;;;2.83;1.30;;;;;;;;;;6208748;23;20907;-66
2023/04/04 03:38:45;;;;;;;1.70;0.90;;;;;;;;;;6209980;23;20375;-66
2023/04/04 03:41:11;;;;;;;0.97;0.93;;;;;;;;;;6210131;23;20474;-67
2023/04/04 03:43:37;;;;;;;1.40;1.00;;;;;;;;;;6209680;23;20395;-68
2023/04/04 03:46:04;;;;;;;1.43;1.00;;;;;;;;;;6208937;23;20378;-69
2023/04/04 03:48:30;;;;;;;0.90;0.90;;;;;;;;;;6210382;23;20397;-66
2023/04/04 03:50:57;;;;;;;1.57;1.10;;;;;;;;;;6211115;23;20367;-66
2023/04/04 03:53:24;;;;;;;1.20;1.20;;;;;;;;;;6211654;23;20752;-66
2023/04/04 03:55:50;;;;;;;1.20;1.10;;;;;;;;;;6211137;23;20853;-66
2023/04/04 03:58:16;;;;;;;1.63;1.17;;;;;;;;;;6211751;23;20853;-68
2023/04/04 04:00:42;;;;;;;3.20;1.20;;;;;;;;;;6211224;23;20391;-67
2023/04/04 04:03:08;;;;;;;1.80;1.70;;;;;;;;;;6211299;23;20718;-70
2023/04/04 04:05:34;;;;;;;1.60;1.10;;;;;;;;;;6210734;23;20956;-66
2023/04/04 04:07:59;;;;;;;1.20;1.10;;;;;;;;;;6209861;23;20486;-66
2023/04/04 04:10:25;;;;;;;2.27;1.00;;;;;;;;;;6211626;23;20391;-66
2023/04/04 04:12:51;;;;;;;2.20;1.10;;;;;;;;;;6211479;23;20850;-67
2023/04/04 04:15:18;;;;;;;0.70;0.70;;;;;;;;;;6211380;23;20830;-70
2023/04/04 04:17:44;;;;;;;1.20;1.20;;;;;;;;;;6208988;23;20851;-69
2023/04/04 04:20:11;;;;;;;1.20;1.20;;;;;;;;;;6211185;23;20386;-67
2023/04/04 04:22:37;;;;;;;1.43;1.43;;;;;;;;;;6211679;23;20712;-68
2023/04/04 04:25:03;;;;;;;1.50;1.40;;;;;;;;;;6211486;23;20383;-67
2023/04/04 04:27:29;;;;;;;1.53;0.97;;;;;;;;;;6210239;23;20683;-66
2023/04/04 04:29:55;;;;;;;2.40;1.27;;;;;;;;;;6211425;23;20449;-66
2023/04/04 04:32:21;;;;;;;1.17;1.03;;;;;;;;;;6210899;23;20834;-67
2023/04/04 04:34:47;;;;;;;1.30;1.30;;;;;;;;;;6210894;23;20955;-68
2023/04/04 04:37:13;;;;;;;2.60;1.07;;;;;;;;;;6210454;23;20422;-67
2023/04/04 04:39:40;;;;;;;1.10;1.10;;;;;;;;;;6210739;23;20411;-67
2023/04/04 04:42:06;;;;;;;9.63;1.17;;;;;;;;;;6209922;23;21007;-66
2023/04/04 04:44:32;;;;;;;2.10;2.00;;;;;;;;;;6210954;23;20477;-66
2023/04/04 04:46:58;;;;;;;1.53;1.53;;;;;;;;;;6210141;23;20469;-64
2023/04/04 04:49:24;;;;;;;1.37;1.03;;;;;;;;;;6210941;23;20855;-64
2023/04/04 04:51:49;;;;;;;2.20;1.60;;;;;;;;;;6208510;23;20820;-64
2023/04/04 04:54:15;;;;;;;1.20;1.03;;;;;;;;;;6208748;23;20501;-64
2023/04/04 04:56:42;;;;;;;1.27;1.27;;;;;;;;;;6207363;23;20380;-68
2023/04/04 04:59:10;;;;;;;2.63;2.23;;;;;;;;;;6208989;23;20788;-67
2023/04/04 05:01:36;;;;;;;1.37;1.30;;;;;;;;;;6182362;23;20686;-65
2023/04/04 05:04:02;;;;;;;2.20;1.07;;;;;;;;;;6209498;23;20391;-65
2023/04/04 05:06:28;;;;;;;2.30;1.83;;;;;;;;;;6208244;23;20374;-65
2023/04/04 05:08:53;;;;;;;1.83;1.30;;;;;;;;;;6209855;23;20383;-65
2023/04/04 05:11:20;;;;;;;2.10;2.00;;;;;;;;;;6210831;23;20371;-65
2023/04/04 05:13:46;;;;;;;2.87;1.53;;;;;;;;;;6210248;23;21134;-65
2023/04/04 05:16:12;;;;;;;1.60;1.60;;;;;;;;;;6208986;23;20387;-64
2023/04/04 05:18:38;;;;;;;2.00;1.43;;;;;;;;;;6210493;23;20379;-64
2023/04/04 05:21:04;;;;;;;2.40;1.60;;;;;;;;;;6208630;23;20406;-64
2023/04/04 05:23:30;;;;;;;2.80;1.83;;;;;;;;;;6209533;23;20407;-64
2023/04/04 05:25:57;;;;;;;1.10;1.10;;;;;;;;;;6208562;23;20384;-64
2023/04/04 05:28:22;;;;;;;1.73;1.27;;;;;;;;;;6206826;23;20724;-64
2023/04/04 05:30:49;;;;;;;2.17;1.20;;;;;;;;;;6209819;23;20379;-65
2023/04/04 05:33:15;;;;;;;1.40;1.40;;;;;;;;;;6209334;23;20453;-64
2023/04/04 05:35:41;;;;;;;1.70;1.60;;;;;;;;;;6209225;23;20388;-64
2023/04/04 05:38:07;;;;;;;1.30;1.20;;;;;;;;;;6209609;23;20391;-67
2023/04/04 05:40:33;;;;;;;1.23;1.23;;;;;;;;;;6210128;23;20411;-69
2023/04/04 05:43:03;;;;;;;2.40;0.97;;;;;;;;;;6209972;23;20697;-64
2023/04/04 05:45:29;;;;;;;1.23;1.13;;;;;;;;;;6209723;23;20457;-64
2023/04/04 05:47:55;;;;;;;1.13;1.13;;;;;;;;;;6207863;23;20421;-65
2023/04/04 05:50:21;;;;;;;1.53;1.10;;;;;;;;;;6210639;23;20379;-64
2023/04/04 05:52:47;;;;;;;1.67;1.60;;;;;;;;;;6209996;23;20387;-66
2023/04/04 05:55:13;;;;;;;1.67;1.13;;;;;;;;;;6209650;23;20431;-65
2023/04/04 05:57:47;;;;;;;1.20;1.17;;;;;;;;;;6209520;23;20383;-66
2023/04/04 06:00:14;;;;;;;2.17;2.07;;;;;;;;;;6210081;23;20836;-65
2023/04/04 06:02:40;;;;;;;1.53;1.30;;;;;;;;;;6209355;23;20789;-65
2023/04/04 06:05:07;;;;;;;1.70;1.70;;;;;;;;;;6209680;23;20795;-66
2023/04/04 06:07:33;;;;;;;2.20;0.90;;;;;;;;;;6209388;23;20914;-65
2023/04/04 06:09:59;;;;;;;3.57;1.50;;;;;;;;;;6209825;23;20375;-66
2023/04/04 06:12:26;;;;;;;1.53;1.07;;;;;;;;;;6209502;23;20936;-65
2023/04/04 06:14:51;;;;;;;0.90;0.90;;;;;;;;;;6209570;23;20437;-66
2023/04/04 06:17:18;;;;;;;1.77;1.67;;;;;;;;;;6209005;23;20376;-65
2023/04/04 06:19:43;;;;;;;1.63;0.93;;;;;;;;;;6209734;23;20379;-65
2023/04/04 06:22:10;;;;;;;2.30;1.00;;;;;;;;;;6209955;23;20371;-65
2023/04/04 06:24:35;;;;;;;1.47;1.37;;;;;;;;;;6207592;23;20399;-66
2023/04/04 06:27:01;;;;;;;1.43;1.43;;;;;;;;;;6207590;23;20378;-64
2023/04/04 06:29:27;;;;;;;1.47;1.37;;;;;;;;;;6209151;23;20383;-65
2023/04/04 06:31:53;;;;;;;1.80;1.80;;;;;;;;;;6207080;23;20724;-65
2023/04/04 06:34:22;;;;;;;1.57;1.57;;;;;;;;;;6206180;23;20899;-65
2023/04/04 06:36:48;;;;;;;1.20;1.10;;;;;;;;;;6209113;23;20470;-65
2023/04/04 06:39:15;;;;;;;4.17;1.43;;;;;;;;;;6208015;23;20685;-64
2023/04/04 06:41:42;;;;;;;1.30;1.13;;;;;;;;;;6207462;23;20761;-65
2023/04/04 06:44:08;;;;;;;1.30;1.30;;;;;;;;;;6207495;23;20876;-65
2023/04/04 06:46:36;;;;;;;2.27;1.07;;;;;;;;;;6208052;23;20391;-66
2023/04/04 06:49:02;;;;;;;1.27;1.17;;;;;;;;;;6209561;23;20378;-65
2023/04/04 06:51:28;;;;;;;1.23;1.23;;;;;;;;;;6209346;23;20379;-66
2023/04/04 06:53:55;;;;;;;1.37;1.23;;;;;;;;;;6209082;23;20454;-65
2023/04/04 06:56:22;;;;;;;2.57;1.30;;;;;;;;;;6208803;23;20375;-66
2023/04/04 06:58:49;;;;;;;1.50;1.40;;;;;;;;;;6208035;23;20490;-66
2023/04/04 07:01:15;;;;;;;2.73;2.03;;;;;;;;;;6209375;23;20465;-66
2023/04/04 07:03:43;;;;;;;1.73;1.53;;;;;;;;;;6209745;23;20388;-66
2023/04/04 07:06:09;;;;;;;1.57;1.10;;;;;;;;;;6208562;23;20386;-66
2023/04/04 07:08:35;;;;;;;1.33;1.13;;;;;;;;;;6208096;23;20410;-67
2023/04/04 07:11:01;;;;;;;1.10;1.00;;;;;;;;;;6209951;23;20927;-65
2023/04/04 07:13:27;;;;;;;13.43;1.17;;;;;;;;;;6209284;23;20438;-66
2023/04/04 07:15:53;;;;;;;0.90;0.90;;;;;;;;;;6207045;23;20399;-65
2023/04/04 07:18:19;;;;;;;1.30;1.30;;;;;;;;;;6209218;23;20432;-65
2023/04/04 07:20:46;;;;;;;1.70;1.27;;;;;;;;;;6208011;23;20394;-66
2023/04/04 07:23:12;;;;;;;2.30;2.10;;;;;;;;;;6208609;23;20803;-64
2023/04/04 07:25:38;;;;;;;1.63;1.53;;;;;;;;;;6183947;23;20979;-64
2023/04/04 07:28:04;;;;;;;12.00;1.97;;;;;;;;;;6209624;23;20498;-64
2023/04/04 07:30:32;;;;;;;1.63;1.63;;;;;;;;;;6211555;23;20492;-67
2023/04/04 07:32:58;;;;;;;1.77;1.67;;;;;;;;;;6210642;23;20383;-66
2023/04/04 07:35:24;;;;;;;1.27;1.27;;;;;;;;;;6210484;23;20488;-65
2023/04/04 07:37:51;;;;;;;1.27;1.17;;;;;;;;;;6209636;23;20442;-67
2023/04/04 07:40:17;;;;;;;1.47;1.40;;;;;;;;;;6184955;23;20425;-65
2023/04/04 07:42:46;;;;;;;1.27;1.13;;;;;;;;;;6211352;23;20853;-65
2023/04/04 07:45:12;;;;;;;3.53;1.90;;;;;;;;;;6211085;23;21044;-64
2023/04/04 07:47:45;;;;;;;1.70;1.40;;;;;;;;;;6209141;23;20726;-68
2023/04/04 07:50:11;;;;;;;2.00;1.90;;;;;;;;;;6209689;23;20940;-65
2023/04/04 07:52:38;;;;;;;1.63;1.30;;;;;;;;;;6211026;23;20390;-64
2023/04/04 07:55:06;;;;;;;2.73;1.33;;;;;;;;;;6209309;23;20492;-64
2023/04/04 07:57:32;;;;;;;3.80;2.13;;;;;;;;;;6209892;23;20383;-65
2023/04/04 07:59:58;;;;;;;2.00;1.60;;;;;;;;;;6211311;23;20379;-64
2023/04/04 08:02:24;;;;;;;1.50;1.50;;;;;;;;;;6209685;23;20732;-64
2023/04/04 08:04:50;;;;;;;1.10;1.10;;;;;;;;;;6210584;23;20390;-65
2023/04/04 08:07:16;;;;;;;1.10;1.00;;;;;;;;;;6209674;23;20418;-64
2023/04/04 08:09:43;;;;;;;1.30;1.30;;;;;;;;;;6211710;23;20868;-66
2023/04/04 08:12:09;;;;;;;2.13;1.43;;;;;;;;;;6211147;23;20445;-65
2023/04/04 08:14:35;;;;;;;3.07;1.70;;;;;;;;;;6211176;23;20924;-68
2023/04/04 08:17:01;;;;;;;1.37;1.27;;;;;;;;;;6209861;23;20375;-68
2023/04/04 08:19:27;;;;;;;1.10;1.10;;;;;;;;;;6210773;23;20379;-64
2023/04/04 08:21:54;;;;;;;1.50;1.47;;;;;;;;;;6210918;23;20371;-71
2023/04/04 08:24:21;;;;;;;2.40;1.23;;;;;;;;;;6209727;23;20413;-65
2023/04/04 08:26:47;;;;;;;2.10;1.73;;;;;;;;;;6210993;23;20398;-64
2023/04/04 08:29:13;;;;;;;3.43;1.23;;;;;;;;;;6211499;23;20700;-66
2023/04/04 08:31:40;;;;;;;1.30;1.30;;;;;;;;;;6210843;23;20379;-64
2023/04/04 08:34:07;;;;;;;4.20;3.33;;;;;;;;;;6210652;23;20415;-64
2023/04/04 08:36:33;;;;;;;1.63;1.53;;;;;;;;;;6210286;23;20434;-64
2023/04/04 08:38:59;;;;;;;1.67;1.40;;;;;;;;;;6210272;23;20448;-65
2023/04/04 08:41:26;;;;;;;1.20;1.20;;;;;;;;;;6210842;23;20489;-64
2023/04/04 08:43:55;;;;;;;2.83;1.40;;;;;;;;;;6211212;23;20379;-64
2023/04/04 08:46:25;;;;;;;5.53;1.60;;;;;;;;;;6208021;23;20391;-64
2023/04/04 08:48:52;;;;;;;6.70;1.70;;;;;;;;;;6211070;23;20383;-64
2023/04/04 08:51:19;;;;;;;1.77;1.67;;;;;;;;;;6207828;23;20454;-64
2023/04/04 08:53:46;;;;;;;2.73;1.63;;;;;;;;;;6211031;23;20449;-64
2023/04/04 08:56:12;;;;;;;0.97;0.97;;;;;;;;;;6208063;23;20387;-64
2023/04/04 08:58:38;;;;;;;1.10;1.10;;;;;;;;;;6209177;23;20549;-64
2023/04/04 09:01:04;;;;;;;1.20;1.20;;;;;;;;;;6210103;23;20868;-64
2023/04/04 09:03:33;;;;;;;1.60;1.60;;;;;;;;;;6210578;23;20466;-63
2023/04/04 09:05:59;;;;;;;1.60;1.50;;;;;;;;;;6209809;23;20371;-65
2023/04/04 09:08:25;;;;;;;1.10;1.10;;;;;;;;;;6210756;23;20440;-64
2023/04/04 09:10:51;;;;;;;1.47;1.40;;;;;;;;;;6210764;23;20375;-64
2023/04/04 09:13:18;;;;;;;1.60;1.50;;;;;;;;;;6210203;23;20712;-65
2023/04/04 09:15:48;;;;;;;1.10;0.90;;;;;;;;;;6207819;23;20435;-64
2023/04/04 09:18:14;;;;;;;3.97;2.03;;;;;;;;;;6210256;23;20446;-64
2023/04/04 09:20:41;;;;;;;2.47;2.00;;;;;;;;;;6209280;23;20383;-64
2023/04/04 09:23:11;;;;;;;1.23;1.23;;;;;;;;;;6209631;23;20394;-64
2023/04/04 09:25:44;;;;;;;1.60;1.03;;;;;;;;;;6209729;23;20871;-65
2023/04/04 09:28:11;;;;;;;2.23;1.60;;;;;;;;;;6210188;23;20382;-64
2023/04/04 09:30:37;;;;;;;1.30;1.30;;;;;;;;;;6210744;23;20387;-64
2023/04/04 09:33:08;;;;;;;1.10;1.10;;;;;;;;;;6208215;23;20410;-65
2023/04/04 09:35:35;;;;;;;1.53;1.43;;;;;;;;;;6208050;23;20967;-64
2023/04/04 09:38:01;;;;;;;1.70;1.60;;;;;;;;;;6210023;23;20911;-66
2023/04/04 09:40:28;;;;;;;1.20;1.17;;;;;;;;;;6210034;23;20999;-64
2023/04/04 09:42:55;;;;;;;1.87;1.70;;;;;;;;;;6207458;23;20383;-67
2023/04/04 09:45:25;;;;;;;2.33;1.80;;;;;;;;;;6209777;23;20617;-65
2023/04/04 09:47:51;;;;;;;1.43;1.43;;;;;;;;;;6209915;23;20375;-70
2023/04/04 09:50:22;;;;;;;1.30;1.30;;;;;;;;;;6210140;23;20964;-65
2023/04/04 09:52:48;;;;;;;1.10;1.10;;;;;;;;;;6210967;23;20383;-66
2023/04/04 09:55:14;;;;;;;1.57;1.30;;;;;;;;;;6206765;23;20437;-66
2023/04/04 09:57:40;;;;;;;7.70;2.40;;;;;;;;;;6209317;23;20466;-65
2023/04/04 10:00:10;;;;;;;4.20;1.50;;;;;;;;;;6209666;23;20989;-65
2023/04/04 10:02:40;;;;;;;5.60;1.57;;;;;;;;;;6209901;23;20387;-65
2023/04/04 10:05:09;;;;;;;1.23;1.23;;;;;;;;;;6208424;23;20395;-65
2023/04/04 10:07:37;;;;;;;2.20;1.00;;;;;;;;;;6209525;23;20417;-66
2023/04/04 10:10:06;;;;;;;4.23;2.10;;;;;;;;;;6209792;23;20394;-65
2023/04/04 10:12:33;;;;;;;1.23;1.23;;;;;;;;;;6210246;23;20391;-65
2023/04/04 10:15:00;;;;;;;1.90;1.80;;;;;;;;;;6209705;23;20436;-66
2023/04/04 10:17:39;;;;;;;2.07;1.83;;;;;;;;;;6208899;23;20379;-65
2023/04/04 10:20:06;;;;;;;2.00;1.40;;;;;;;;;;6208089;23;20406;-67
2023/04/04 10:22:33;;;;;;;1.23;1.13;;;;;;;;;;6210076;23;20372;-65
2023/04/04 10:24:59;;;;;;;1.80;1.70;;;;;;;;;;6209911;23;20452;-65
2023/04/04 10:27:25;;;;;;;1.43;1.33;;;;;;;;;;6209050;23;20376;-65
2023/04/04 10:29:52;;;;;;;1.43;1.30;;;;;;;;;;6209807;23;20391;-65
2023/04/04 10:32:23;;;;;;;1.80;1.70;;;;;;;;;;6208618;23;20383;-65
2023/04/04 10:34:55;;;;;;;1.73;1.73;;;;;;;;;;6209197;23;20924;-66
2023/04/04 10:37:27;;;;;;;1.40;1.40;;;;;;;;;;6208523;23;20441;-68
2023/04/04 10:39:58;;;;;;;1.60;1.50;;;;;;;;;;6209593;23;20382;-64
2023/04/04 10:42:25;;;;;;;1.70;1.43;;;;;;;;;;6209634;23;20364;-65
2023/04/04 10:44:51;;;;;;;1.20;1.13;;;;;;;;;;6209298;23;20383;-66
2023/04/04 10:47:21;;;;;;;3.80;1.53;;;;;;;;;;6208709;23;20453;-65
2023/04/04 10:49:47;;;;;;;1.23;1.13;;;;;;;;;;6209000;23;20860;-65
2023/04/04 10:52:16;;;;;;;4.23;1.60;;;;;;;;;;6209560;23;20380;-65
2023/04/04 10:54:43;;;;;;;2.40;2.30;;;;;;;;;;6209162;23;20528;-64
2023/04/04 10:57:09;;;;;;;1.53;1.37;;;;;;;;;;6209110;23;20379;-68
2023/04/04 10:59:56;;;;;;;1.20;1.20;;;;;;;;;;6208678;23;20494;-65
2023/04/04 11:02:42;;;;;;;1.60;1.50;;;;;;;;;;6209073;23;20363;-68
2023/04/04 11:05:32;;;;;;;1.23;1.10;;;;;;;;;;6209490;23;20682;-65
2023/04/04 11:08:02;;;;;;;1.53;1.53;;;;;;;;;;6194124;23;20382;-65
2023/04/04 11:10:29;;;;;;;1.53;1.43;;;;;;;;;;6209401;23;20390;-65
2023/04/04 11:12:57;;;;;;;2.00;1.40;;;;;;;;;;6209291;23;20394;-65
2023/04/04 11:15:25;;;;;;;1.10;1.10;;;;;;;;;;6208293;23;20434;-64
2023/04/04 11:17:51;;;;;;;2.57;1.33;;;;;;;;;;6207847;23;20390;-65
2023/04/04 11:20:22;;;;;;;10.37;2.37;;;;;;;;;;6209529;23;20466;-65
2023/04/04 11:23:02;;;;;;;7.07;1.60;;;;;;;;;;6207758;23;20445;-65
2023/04/04 11:25:36;;;;;;;2.53;1.33;;;;;;;;;;6208345;23;20705;-65
2023/04/04 11:28:09;;;;;;;7.30;1.73;;;;;;;;;;6207519;23;20458;-65
2023/04/04 11:30:46;;;;;;;1.27;1.27;;;;;;;;;;6208260;23;20414;-65
2023/04/04 11:33:13;;;;;;;1.90;1.80;;;;;;;;;;6209269;23;20368;-65
2023/04/04 11:35:39;;;;;;;2.53;1.40;;;;;;;;;;6209065;23;20514;-65
2023/04/04 11:38:15;;;;;;;1.97;1.87;;;;;;;;;;6207896;23;20631;-66
2023/04/04 11:40:42;;;;;;;1.13;1.13;;;;;;;;;;6206660;23;20406;-68
2023/04/04 11:43:09;;;;;;;1.97;1.47;;;;;;;;;;6209130;23;20473;-65
2023/04/04 11:45:36;;;;;;;3.23;2.07;;;;;;;;;;6207121;23;20421;-65
2023/04/04 11:48:04;;;;;;;0.97;0.97;;;;;;;;;;6208160;23;20883;-65
2023/04/04 11:50:39;;;;;;;3.37;1.50;;;;;;;;;;6206085;23;20695;-65
2023/04/04 11:53:07;;;;;;;2.93;1.83;;;;;;;;;;6204951;23;20383;-65
2023/04/04 11:55:33;;;;;;;1.33;1.23;;;;;;;;;;6207263;23;20492;-65
2023/04/04 11:58:07;;;;;;;2.97;2.10;;;;;;;;;;6205545;23;20480;-69
2023/04/04 12:00:38;;;;;;;3.63;2.00;;;;;;;;;;6207920;23;20391;-67
2023/04/04 12:03:11;;;;;;;1.43;1.40;;;;;;;;;;6209194;23;20828;-66
2023/04/04 12:05:37;;;;;;;2.17;1.97;;;;;;;;;;6208832;23;20873;-67
2023/04/04 12:08:04;;;;;;;6.83;2.60;;;;;;;;;;6206489;23;20382;-66
2023/04/04 12:10:32;;;;;;;3.80;1.87;;;;;;;;;;6209507;23;20860;-66
2023/04/04 12:12:58;;;;;;;2.50;1.63;;;;;;;;;;6210977;23;20387;-66
2023/04/04 12:15:27;;;;;;;1.50;1.50;;;;;;;;;;6210062;23;20442;-67
2023/04/04 12:17:52;;;;;;;1.63;1.50;;;;;;;;;;6212090;23;20390;-66
2023/04/04 12:20:24;;;;;;;3.30;3.10;;;;;;;;;;6210873;23;20383;-65
2023/04/04 12:22:51;;;;;;;2.13;1.93;;;;;;;;;;6210089;23;20363;-65
2023/04/04 12:25:22;;;;;;;2.20;1.70;;;;;;;;;;6209449;23;20790;-66
2023/04/04 12:27:49;;;;;;;1.60;1.60;;;;;;;;;;6212008;23;20363;-65
2023/04/04 12:30:15;;;;;;;6.03;2.10;;;;;;;;;;6210833;23;20521;-66
2023/04/04 12:32:42;;;;;;;1.90;1.60;;;;;;;;;;6211003;23;20668;-66
2023/04/04 12:35:10;;;;;;;5.10;2.03;;;;;;;;;;6210938;23;20952;-66
2023/04/04 12:37:36;;;;;;;2.83;1.87;;;;;;;;;;6210843;23;20431;-67
2023/04/04 12:40:03;;;;;;;4.37;1.70;;;;;;;;;;6211408;23;20383;-68
2023/04/04 12:42:31;;;;;;;1.80;1.70;;;;;;;;;;6210775;23;20375;-66
2023/04/04 12:44:57;;;;;;;1.20;1.10;;;;;;;;;;6211311;23;20415;-66
2023/04/04 12:47:25;;;;;;;1.50;1.40;;;;;;;;;;6210450;23;20375;-66
2023/04/04 12:49:53;;;;;;;1.23;1.23;;;;;;;;;;6211244;23;20395;-65
2023/04/04 12:52:21;;;;;;;2.30;2.20;;;;;;;;;;6210921;23;20387;-66
2023/04/04 12:54:48;;;;;;;1.47;1.47;;;;;;;;;;6210807;23;20431;-66
2023/04/04 12:57:18;;;;;;;1.80;1.70;;;;;;;;;;6210953;23;20375;-66
2023/04/04 12:59:47;;;;;;;1.37;1.37;;;;;;;;;;6210957;23;20379;-65
2023/04/04 13:02:15;;;;;;;1.30;1.30;;;;;;;;;;6210068;23;20376;-66
2023/04/04 13:04:45;;;;;;;3.00;1.53;;;;;;;;;;6209050;23;20465;-65
2023/04/04 13:07:26;;;;;;;2.27;1.70;;;;;;;;;;6210824;23;20521;-66
2023/04/04 13:09:53;;;;;;;1.47;1.47;;;;;;;;;;6209634;23;20387;-66
2023/04/04 13:12:19;;;;;;;1.90;1.80;;;;;;;;;;6210384;23;20383;-66
2023/04/04 13:14:55;;;;;;;2.03;2.03;;;;;;;;;;6210287;23;20760;-66
2023/04/04 13:17:21;;;;;;;1.57;1.53;;;;;;;;;;6209997;23;20382;-65
2023/04/04 13:19:47;;;;;;;2.27;1.67;;;;;;;;;;6212284;23;20379;-66
2023/04/04 13:22:13;;;;;;;1.40;1.40;;;;;;;;;;6200048;23;20399;-67
2023/04/04 13:24:39;;;;;;;1.70;1.60;;;;;;;;;;6209095;23;20730;-65
2023/04/04 13:27:05;;;;;;;1.40;1.30;;;;;;;;;;6209740;23;20390;-66
2023/04/04 13:29:32;;;;;;;1.70;1.60;;;;;;;;;;6209956;23;20386;-65
2023/04/04 13:31:58;;;;;;;5.50;1.80;;;;;;;;;;6207907;23;20514;-65
2023/04/04 13:34:25;;;;;;;1.57;1.47;;;;;;;;;;6210552;23;20481;-66
2023/04/04 13:36:51;;;;;;;1.53;1.53;;;;;;;;;;6210490;23;20430;-66
2023/04/04 13:39:17;;;;;;;6.70;1.70;;;;;;;;;;6210511;23;20526;-66
2023/04/04 13:41:43;;;;;;;2.00;1.90;;;;;;;;;;6210355;23;20387;-66
2023/04/04 13:44:09;;;;;;;1.80;1.70;;;;;;;;;;6210560;23;20945;-66
2023/04/04 13:46:35;;;;;;;2.67;2.43;;;;;;;;;;6209766;23;20414;-66
2023/04/04 13:49:02;;;;;;;8.33;1.70;;;;;;;;;;6210700;23;20443;-67
2023/04/04 13:51:28;;;;;;;1.63;1.63;;;;;;;;;;6209807;23;20376;-65
2023/04/04 13:53:54;;;;;;;12.47;1.13;;;;;;;;;;6210549;23;20429;-67
2023/04/04 13:56:20;;;;;;;1.73;1.63;;;;;;;;;;6209971;23;20387;-66
2023/04/04 13:58:46;;;;;;;4.93;1.83;;;;;;;;;;6209856;23;20391;-66
2023/04/04 14:01:12;;;;;;;1.70;1.70;;;;;;;;;;6209148;23;20453;-66
2023/04/04 14:03:38;;;;;;;1.50;1.40;;;;;;;;;;6210023;23;20383;-65
2023/04/04 14:06:04;;;;;;;1.80;1.70;;;;;;;;;;6209136;23;20382;-67
2023/04/04 14:08:30;;;;;;;2.20;2.00;;;;;;;;;;6208919;23;20849;-66
2023/04/04 14:10:56;;;;;;;1.70;1.60;;;;;;;;;;6207243;23;20433;-66
2023/04/04 14:13:22;;;;;;;1.87;1.70;;;;;;;;;;6210400;23;20387;-67
2023/04/04 14:15:49;;;;;;;2.73;1.80;;;;;;;;;;6209313;23;20758;-65
2023/04/04 14:18:15;;;;;;;3.87;1.80;;;;;;;;;;6209858;23;20387;-65
2023/04/04 14:20:41;;;;;;;1.73;1.73;;;;;;;;;;6209511;23;20390;-67
2023/04/04 14:23:08;;;;;;;3.07;2.87;;;;;;;;;;6210339;23;20383;-65
2023/04/04 14:25:34;;;;;;;2.10;2.00;;;;;;;;;;6209096;23;20709;-65
2023/04/04 14:28:00;;;;;;;3.30;3.00;;;;;;;;;;6209846;23;20380;-65
2023/04/04 14:30:26;;;;;;;4.17;3.07;;;;;;;;;;6207723;23;20494;-65
2023/04/04 14:32:52;;;;;;;6.83;1.60;;;;;;;;;;6210065;23;20383;-65
2023/04/04 14:35:19;;;;;;;2.13;2.00;;;;;;;;;;6209636;23;20431;-66
2023/04/04 14:37:45;;;;;;;2.63;2.50;;;;;;;;;;6210166;23;20829;-65
2023/04/04 14:40:12;;;;;;;2.03;1.90;;;;;;;;;;6208091;23;20399;-65
2023/04/04 14:42:38;;;;;;;2.30;2.20;;;;;;;;;;6210012;23;20375;-65